Terminal Aerodrome Forecast
Issued by NWS Charleston, WV

Current Version | Previous Version | Graphics & Text | Print | Product List | Glossary On
Versions: 1 2 3 4 5 6 7 8 9 10 11 12 13 14 15 16 17 18 19 20 21 22 23 24 25 26 27 28 29
000
FTUS41 KRLX 302230 AAA
TAFBKW
TAF AMD
KBKW 302230Z 3023/0118 26010G15KT P6SM VCTS BKN040CB
     FM302315 30015G25KT 2SM TSRA BKN040CB
     FM010000 27010KT 4SM SHRA BKN040
     FM010400 26008KT 6SM BR BKN030
     FM011100 25004KT P6SM BKN010
     FM011400 25004KT P6SM SCT020=

USA.gov is the U.S. government's official web portal to all federal, state and local government web resources and services.